Time,TemperatureF,DewpointF,PressureIn,WindDirection,WindDirectionDegrees,WindSpeedMPH,WindSpeedGustMPH,Humidity,HourlyPrecipIn,Conditions,Clouds,dailyrainin,SoftwareType,DateUTC
2013-03-18 00:00:00,47.1,34.0,29.91,West,270,0.0,0.0,60,0.00,,,0.00,WUHU21623XXSP,2013-03-18 07:00:00,
2013-03-18 00:05:00,47.1,33.6,29.91,West,270,0.0,0.0,59,0.00,,,0.00,WUHU21623XXSP,2013-03-18 07:05:00,
2013-03-18 00:10:00,46.9,33.4,29.90,WNW,292,0.0,0.0,59,0.00,,,0.00,WUHU21623XXSP,2013-03-18 07:10:00,
2013-03-18 00:15:00,46.4,32.9,29.90,NNW,337,0.0,0.0,59,0.00,,,0.00,WUHU21623XXSP,2013-03-18 07:15:00,
2013-03-18 00:20:00,46.0,33.0,29.90,NNW,337,0.0,0.0,60,0.00,,,0.00,WUHU21623XXSP,2013-03-18 07:20:00,
2013-03-18 00:25:00,46.0,33.0,29.90,NNW,337,0.0,0.0,60,0.00,,,0.00,WUHU21623XXSP,2013-03-18 07:25:00,
2013-03-18 00:30:00,45.8,32.8,29.90,NNW,337,0.0,0.0,60,0.00,,,0.00,WUHU21623XXSP,2013-03-18 07:30:00,
2013-03-18 00:35:00,45.5,32.5,29.90,NNW,337,0.0,0.0,60,0.00,,,0.00,WUHU21623XXSP,2013-03-18 07:35:00,
2013-03-18 00:40:00,45.1,32.5,29.90,NNW,337,0.0,0.0,61,0.00,,,0.00,WUHU21623XXSP,2013-03-18 07:40:00,
2013-03-18 00:45:00,44.9,32.3,29.89,NNW,337,0.0,0.0,61,0.00,,,0.00,WUHU21623XXSP,2013-03-18 07:45:00,
2013-03-18 00:50:00,44.6,32.1,29.90,NNW,337,0.0,0.0,61,0.00,,,0.00,WUHU21623XXSP,2013-03-18 07:50:00,
2013-03-18 00:55:00,44.6,32.1,29.90,NNW,337,0.0,0.0,61,0.00,,,0.00,WUHU21623XXSP,2013-03-18 07:55:00,
2013-03-18 01:00:00,44.6,32.1,29.90,NNW,337,0.0,0.0,61,0.00,,,0.00,WUHU21623XXSP,2013-03-18 08:00:00,
2013-03-18 01:05:00,44.2,31.7,29.89,NNW,337,0.0,0.0,61,0.00,,,0.00,WUHU21623XXSP,2013-03-18 08:05:00,
2013-03-18 01:10:00,44.0,31.5,29.89,NNW,337,0.0,0.0,61,0.00,,,0.00,WUHU21623XXSP,2013-03-18 08:10:00,
2013-03-18 01:15:00,43.5,31.0,29.89,NNW,337,0.0,0.0,61,0.00,,,0.00,WUHU21623XXSP,2013-03-18 08:15:00,
2013-03-18 01:20:00,43.3,30.8,29.89,NNW,337,0.0,0.0,61,0.00,,,0.00,WUHU21623XXSP,2013-03-18 08:20:00,
2013-03-18 01:25:00,43.1,30.6,29.89,NNW,337,0.0,0.0,61,0.00,,,0.00,WUHU21623XXSP,2013-03-18 08:25:00,
2013-03-18 01:30:00,43.0,30.5,29.90,NNW,337,0.0,0.0,61,0.00,,,0.00,WUHU21623XXSP,2013-03-18 08:30:00,
2013-03-18 01:35:00,43.0,30.5,29.90,NNW,337,0.0,0.0,61,0.00,,,0.00,WUHU21623XXSP,2013-03-18 08:35:00,
2013-03-18 01:40:00,42.8,30.4,29.90,NNW,337,0.0,0.0,61,0.00,,,0.00,WUHU21623XXSP,2013-03-18 08:40:00,
2013-03-18 01:45:00,42.6,30.6,29.90,NNW,337,0.0,0.0,62,0.00,,,0.00,WUHU21623XXSP,2013-03-18 08:45:00,
2013-03-18 01:50:00,42.4,30.4,29.91,NNW,337,0.0,0.0,62,0.00,,,0.00,WUHU21623XXSP,2013-03-18 08:50:00,
2013-03-18 01:55:00,42.4,30.4,29.90,NNW,337,0.0,0.0,62,0.00,,,0.00,WUHU21623XXSP,2013-03-18 08:55:00,
2013-03-18 02:00:00,42.2,30.2,29.90,NNW,337,0.0,0.0,62,0.00,,,0.00,WUHU21623XXSP,2013-03-18 09:00:00,
2013-03-18 02:05:00,42.2,30.6,29.89,NNW,337,0.0,0.0,63,0.00,,,0.00,WUHU21623XXSP,2013-03-18 09:05:00,
2013-03-18 02:10:00,41.9,30.3,29.89,NNW,337,0.0,0.0,63,0.00,,,0.00,WUHU21623XXSP,2013-03-18 09:10:00,
2013-03-18 02:15:00,41.5,29.9,29.90,NNW,337,0.0,0.0,63,0.00,,,0.00,WUHU21623XXSP,2013-03-18 09:15:00,
2013-03-18 02:20:00,41.5,29.9,29.90,NNW,337,0.0,0.0,63,0.00,,,0.00,WUHU21623XXSP,2013-03-18 09:20:00,
2013-03-18 02:25:00,41.3,29.7,29.90,NNW,337,0.0,0.0,63,0.00,,,0.00,WUHU21623XXSP,2013-03-18 09:25:00,
2013-03-18 02:30:00,41.2,29.6,29.90,NNW,337,0.0,0.0,63,0.00,,,0.00,WUHU21623XXSP,2013-03-18 09:30:00,
2013-03-18 02:35:00,41.0,29.4,29.90,ENE,67,0.0,0.0,63,0.00,,,0.00,WUHU21623XXSP,2013-03-18 09:35:00,
2013-03-18 02:40:00,41.0,29.4,29.90,ENE,67,0.0,0.0,63,0.00,,,0.00,WUHU21623XXSP,2013-03-18 09:40:00,
2013-03-18 02:45:00,41.0,29.8,29.90,ENE,67,0.0,0.0,64,0.00,,,0.00,WUHU21623XXSP,2013-03-18 09:45:00,
2013-03-18 02:50:00,41.0,29.8,29.90,ENE,67,0.0,0.0,64,0.00,,,0.00,WUHU21623XXSP,2013-03-18 09:50:00,
2013-03-18 02:55:00,41.0,29.8,29.89,NE,45,0.0,0.0,64,0.00,,,0.00,WUHU21623XXSP,2013-03-18 09:55:00,
2013-03-18 03:00:00,41.0,29.4,29.89,North,0,0.0,0.0,63,0.00,,,0.00,WUHU21623XXSP,2013-03-18 10:00:00,
2013-03-18 03:05:00,40.6,29.1,29.89,North,0,0.0,0.0,63,0.00,,,0.00,WUHU21623XXSP,2013-03-18 10:05:00,
2013-03-18 03:10:00,40.6,29.1,29.89,North,0,0.0,0.0,63,0.00,,,0.00,WUHU21623XXSP,2013-03-18 10:10:00,
2013-03-18 03:15:00,40.4,29.3,29.88,North,0,0.0,0.0,64,0.00,,,0.00,WUHU21623XXSP,2013-03-18 10:15:00,
2013-03-18 03:20:00,40.4,29.3,29.89,North,0,0.0,0.0,64,0.00,,,0.00,WUHU21623XXSP,2013-03-18 10:20:00,
2013-03-18 03:25:00,40.4,29.3,29.88,North,0,0.0,0.0,64,0.00,,,0.00,WUHU21623XXSP,2013-03-18 10:25:00,
2013-03-18 03:30:00,40.6,29.1,29.88,North,0,0.0,0.0,63,0.00,,,0.00,WUHU21623XXSP,2013-03-18 10:30:00,
2013-03-18 03:35:00,40.6,29.1,29.88,North,0,0.0,0.0,63,0.00,,,0.00,WUHU21623XXSP,2013-03-18 10:35:00,
2013-03-18 03:40:00,40.4,28.9,29.88,North,0,0.0,0.0,63,0.00,,,0.00,WUHU21623XXSP,2013-03-18 10:40:00,
2013-03-18 03:45:00,40.1,28.6,29.88,North,0,0.0,0.0,63,0.00,,,0.00,WUHU21623XXSP,2013-03-18 10:45:00,
2013-03-18 03:50:00,39.7,28.6,29.87,North,0,0.0,0.0,64,0.00,,,0.00,WUHU21623XXSP,2013-03-18 10:50:00,
2013-03-18 03:55:00,39.5,28.4,29.87,North,0,0.0,0.0,64,0.00,,,0.00,WUHU21623XXSP,2013-03-18 10:55:00,
2013-03-18 04:00:00,39.2,28.1,29.87,North,0,0.0,0.0,64,0.00,,,0.00,WUHU21623XXSP,2013-03-18 11:00:00,
2013-03-18 04:05:00,39.2,28.1,29.87,North,0,0.0,0.0,64,0.00,,,0.00,WUHU21623XXSP,2013-03-18 11:05:00,
2013-03-18 04:10:00,38.8,27.7,29.87,North,0,0.0,0.0,64,0.00,,,0.00,WUHU21623XXSP,2013-03-18 11:10:00,
2013-03-18 04:15:00,38.8,27.7,29.87,North,0,0.0,0.0,64,0.00,,,0.00,WUHU21623XXSP,2013-03-18 11:15:00,
2013-03-18 04:20:00,38.6,27.5,29.86,North,0,0.0,0.0,64,0.00,,,0.00,WUHU21623XXSP,2013-03-18 11:20:00,
2013-03-18 04:25:00,38.3,27.3,29.86,North,0,0.0,0.0,64,0.00,,,0.00,WUHU21623XXSP,2013-03-18 11:25:00,
2013-03-18 04:30:00,38.1,27.1,29.86,North,0,0.0,0.0,64,0.00,,,0.00,WUHU21623XXSP,2013-03-18 11:30:00,
2013-03-18 04:35:00,37.9,27.3,29.86,North,0,0.0,0.0,65,0.00,,,0.00,WUHU21623XXSP,2013-03-18 11:35:00,
2013-03-18 04:40:00,37.9,27.3,29.86,North,0,0.0,0.0,65,0.00,,,0.00,WUHU21623XXSP,2013-03-18 11:40:00,
2013-03-18 04:45:00,37.7,27.1,29.86,North,0,0.0,0.0,65,0.00,,,0.00,WUHU21623XXSP,2013-03-18 11:45:00,
2013-03-18 04:50:00,37.6,27.0,29.86,North,0,0.0,0.0,65,0.00,,,0.00,WUHU21623XXSP,2013-03-18 11:50:00,
2013-03-18 04:55:00,37.4,26.8,29.86,North,0,0.0,0.0,65,0.00,,,0.00,WUHU21623XXSP,2013-03-18 11:55:00,
2013-03-18 05:00:00,37.4,26.8,29.87,North,0,0.0,0.0,65,0.00,,,0.00,WUHU21623XXSP,2013-03-18 12:00:00,
2013-03-18 05:06:00,37.4,26.8,29.86,North,0,0.0,0.0,65,0.00,,,0.00,WUHU21623XXSP,2013-03-18 12:06:00,
2013-03-18 05:11:00,37.4,26.8,29.86,North,0,0.0,0.0,65,0.00,,,0.00,WUHU21623XXSP,2013-03-18 12:11:00,
2013-03-18 05:16:00,37.4,26.8,29.86,North,0,0.0,0.0,65,0.00,,,0.00,WUHU21623XXSP,2013-03-18 12:16:00,
2013-03-18 05:21:00,37.4,26.8,29.86,North,0,0.0,0.0,65,0.00,,,0.00,WUHU21623XXSP,2013-03-18 12:21:00,
2013-03-18 05:26:00,37.4,26.8,29.87,North,0,0.0,0.0,65,0.00,,,0.00,WUHU21623XXSP,2013-03-18 12:26:00,
2013-03-18 05:31:00,37.4,27.2,29.87,North,0,0.0,0.0,66,0.00,,,0.00,WUHU21623XXSP,2013-03-18 12:31:00,
2013-03-18 05:36:00,37.2,26.6,29.87,North,0,0.0,0.0,65,0.00,,,0.00,WUHU21623XXSP,2013-03-18 12:36:00,
2013-03-18 05:41:00,37.0,26.4,29.87,North,0,0.0,0.0,65,0.00,,,0.00,WUHU21623XXSP,2013-03-18 12:41:00,
2013-03-18 05:46:00,37.0,26.4,29.87,North,0,0.0,0.0,65,0.00,,,0.00,WUHU21623XXSP,2013-03-18 12:46:00,
2013-03-18 05:51:00,37.0,26.4,29.87,North,0,0.0,0.0,65,0.00,,,0.00,WUHU21623XXSP,2013-03-18 12:51:00,
2013-03-18 05:56:00,37.0,26.4,29.87,North,0,0.0,0.0,65,0.00,,,0.00,WUHU21623XXSP,2013-03-18 12:56:00,
2013-03-18 06:01:00,37.0,26.4,29.87,North,0,0.0,0.0,65,0.00,,,0.00,WUHU21623XXSP,2013-03-18 13:01:00,
2013-03-18 06:06:00,37.0,26.4,29.87,North,0,0.0,0.0,65,0.00,,,0.00,WUHU21623XXSP,2013-03-18 13:06:00,
2013-03-18 06:11:00,36.8,26.2,29.87,North,0,0.0,0.0,65,0.00,,,0.00,WUHU21623XXSP,2013-03-18 13:11:00,
2013-03-18 06:16:00,37.0,26.8,29.87,North,0,0.0,0.0,66,0.00,,,0.00,WUHU21623XXSP,2013-03-18 13:16:00,
2013-03-18 06:21:00,37.0,26.8,29.87,North,0,0.0,0.0,66,0.00,,,0.00,WUHU21623XXSP,2013-03-18 13:21:00,
2013-03-18 06:26:00,36.8,26.6,29.88,North,0,0.0,0.0,66,0.00,,,0.00,WUHU21623XXSP,2013-03-18 13:26:00,
2013-03-18 06:31:00,36.8,26.6,29.87,North,0,0.0,0.0,66,0.00,,,0.00,WUHU21623XXSP,2013-03-18 13:31:00,
2013-03-18 06:36:00,37.0,26.8,29.87,North,0,0.0,0.0,66,0.00,,,0.00,WUHU21623XXSP,2013-03-18 13:36:00,
2013-03-18 06:41:00,37.0,26.8,29.88,North,0,0.0,0.0,66,0.00,,,0.00,WUHU21623XXSP,2013-03-18 13:41:00,
2013-03-18 06:46:00,37.0,26.8,29.88,North,0,0.0,0.0,66,0.00,,,0.00,WUHU21623XXSP,2013-03-18 13:46:00,
2013-03-18 06:51:00,37.0,27.1,29.88,North,0,0.0,0.0,67,0.00,,,0.00,WUHU21623XXSP,2013-03-18 13:51:00,
2013-03-18 06:56:00,37.0,27.1,29.88,NE,45,0.0,0.0,67,0.00,,,0.00,WUHU21623XXSP,2013-03-18 13:56:00,
2013-03-18 07:01:00,37.4,27.9,29.88,ENE,67,0.0,0.0,68,0.00,,,0.00,WUHU21623XXSP,2013-03-18 14:01:00,
2013-03-18 07:06:00,37.4,28.2,29.88,ENE,67,0.0,0.0,69,0.00,,,0.00,WUHU21623XXSP,2013-03-18 14:06:00,
2013-03-18 07:10:00,37.0,27.8,29.88,ENE,67,0.0,0.0,69,0.00,,,0.00,WUHU21623XXSP,2013-03-18 14:10:00,
2013-03-18 07:16:00,37.0,27.8,29.88,ENE,67,0.0,0.0,69,0.00,,,0.00,WUHU21623XXSP,2013-03-18 14:16:00,
2013-03-18 07:21:00,36.8,27.3,29.88,ENE,67,0.0,0.0,68,0.00,,,0.00,WUHU21623XXSP,2013-03-18 14:21:00,
2013-03-18 07:25:00,36.8,26.9,29.88,ENE,67,0.0,0.0,67,0.00,,,0.00,WUHU21623XXSP,2013-03-18 14:25:00,
2013-03-18 07:30:00,36.8,26.9,29.89,ENE,67,0.0,0.0,67,0.00,,,0.00,WUHU21623XXSP,2013-03-18 14:30:00,
2013-03-18 07:35:00,36.8,26.9,29.90,ENE,67,0.0,0.0,67,0.00,,,0.00,WUHU21623XXSP,2013-03-18 14:35:00,
2013-03-18 07:41:00,36.8,26.9,29.89,ENE,67,0.0,0.0,67,0.00,,,0.00,WUHU21623XXSP,2013-03-18 14:41:00,
2013-03-18 07:46:00,36.8,26.9,29.90,ENE,67,0.0,0.0,67,0.00,,,0.00,WUHU21623XXSP,2013-03-18 14:46:00,
2013-03-18 07:50:00,36.8,27.3,29.90,ENE,67,0.0,0.0,68,0.00,,,0.00,WUHU21623XXSP,2013-03-18 14:50:00,
2013-03-18 07:55:00,37.0,27.5,29.90,ENE,67,0.0,0.0,68,0.00,,,0.00,WUHU21623XXSP,2013-03-18 14:55:00,
2013-03-18 08:00:00,37.4,27.5,29.91,ENE,67,0.0,0.0,67,0.00,,,0.00,WUHU21623XXSP,2013-03-18 15:00:00,
2013-03-18 08:05:00,37.9,27.3,29.91,ENE,67,0.0,0.0,65,0.00,,,0.00,WUHU21623XXSP,2013-03-18 15:05:00,
2013-03-18 08:10:00,38.3,27.6,29.91,ENE,67,0.0,0.0,65,0.00,,,0.00,WUHU21623XXSP,2013-03-18 15:10:00,
2013-03-18 08:15:00,38.8,27.7,29.91,ENE,67,0.0,0.0,64,0.00,,,0.00,WUHU21623XXSP,2013-03-18 15:15:00,
2013-03-18 08:20:00,39.0,27.9,29.91,ENE,67,0.0,0.0,64,0.00,,,0.00,WUHU21623XXSP,2013-03-18 15:20:00,
2013-03-18 08:25:00,39.2,28.1,29.92,North,0,0.0,0.0,64,0.00,,,0.00,WUHU21623XXSP,2013-03-18 15:25:00,
2013-03-18 08:30:00,39.5,29.5,29.92,ENE,67,0.0,0.0,67,0.00,,,0.00,WUHU21623XXSP,2013-03-18 15:30:00,
2013-03-18 08:35:00,39.7,30.4,29.92,North,0,0.0,0.0,69,0.00,,,0.00,WUHU21623XXSP,2013-03-18 15:35:00,
2013-03-18 08:40:00,40.1,31.2,29.92,North,0,0.0,0.0,70,0.00,,,0.00,WUHU21623XXSP,2013-03-18 15:40:00,
2013-03-18 08:45:00,40.8,31.5,29.92,ENE,67,0.0,0.0,69,0.00,,,0.00,WUHU21623XXSP,2013-03-18 15:45:00,
2013-03-18 08:50:00,41.5,31.8,29.93,ENE,67,0.0,0.0,68,0.00,,,0.00,WUHU21623XXSP,2013-03-18 15:50:00,
2013-03-18 08:55:00,42.4,31.9,29.93,North,0,0.0,0.0,66,0.00,,,0.00,WUHU21623XXSP,2013-03-18 15:55:00,
2013-03-18 09:00:00,43.1,32.2,29.92,ENE,67,0.0,0.0,65,0.00,,,0.00,WUHU21623XXSP,2013-03-18 16:00:00,
2013-03-18 09:05:00,43.7,32.4,29.92,ENE,67,0.0,0.0,64,0.00,,,0.00,WUHU21623XXSP,2013-03-18 16:05:00,
2013-03-18 09:10:00,44.6,33.3,29.92,ENE,67,0.0,0.0,64,0.00,,,0.00,WUHU21623XXSP,2013-03-18 16:10:00,
2013-03-18 09:15:00,45.1,33.3,29.93,ENE,67,0.0,0.0,63,0.00,,,0.00,WUHU21623XXSP,2013-03-18 16:15:00,
2013-03-18 09:20:00,46.0,33.8,29.93,ENE,67,0.0,0.0,62,0.00,,,0.00,WUHU21623XXSP,2013-03-18 16:20:00,
2013-03-18 09:25:00,46.6,34.4,29.93,ENE,67,0.0,0.0,62,0.00,,,0.00,WUHU21623XXSP,2013-03-18 16:25:00,
2013-03-18 09:30:00,47.1,34.4,29.93,ENE,67,0.0,0.0,61,0.00,,,0.00,WUHU21623XXSP,2013-03-18 16:30:00,
2013-03-18 09:35:00,47.6,34.5,29.93,NE,45,0.0,0.0,60,0.00,,,0.00,WUHU21623XXSP,2013-03-18 16:35:00,
2013-03-18 09:40:00,48.4,35.2,29.93,NE,45,0.0,0.0,60,0.00,,,0.00,WUHU21623XXSP,2013-03-18 16:40:00,
2013-03-18 09:45:00,49.1,35.9,29.93,NE,45,0.0,0.0,60,0.00,,,0.00,WUHU21623XXSP,2013-03-18 16:45:00,
2013-03-18 09:50:00,49.8,36.1,29.93,NNW,337,0.0,0.0,59,0.00,,,0.00,WUHU21623XXSP,2013-03-18 16:50:00,
2013-03-18 09:55:00,50.5,36.3,29.93,NNW,337,0.0,0.0,58,0.00,,,0.00,WUHU21623XXSP,2013-03-18 16:55:00,
2013-03-18 10:00:00,50.9,36.7,29.93,NNW,337,0.0,0.0,58,0.00,,,0.00,WUHU21623XXSP,2013-03-18 17:00:00,
2013-03-18 10:05:00,51.4,37.2,29.93,NNW,337,0.0,0.0,58,0.00,,,0.00,WUHU21623XXSP,2013-03-18 17:05:00,
2013-03-18 10:10:00,52.1,37.9,29.94,NNW,337,0.0,0.0,58,0.00,,,0.00,WUHU21623XXSP,2013-03-18 17:10:00,
2013-03-18 10:15:00,52.7,38.4,29.94,SW,225,0.0,0.0,58,0.00,,,0.00,WUHU21623XXSP,2013-03-18 17:15:00,
2013-03-18 10:20:00,53.4,38.6,29.94,SW,225,0.0,0.0,57,0.00,,,0.00,WUHU21623XXSP,2013-03-18 17:20:00,
2013-03-18 10:25:00,54.1,39.3,29.94,SW,225,0.0,0.0,57,0.00,,,0.00,WUHU21623XXSP,2013-03-18 17:25:00,
2013-03-18 10:30:00,54.8,39.9,29.94,SSW,202,0.0,0.0,57,0.00,,,0.00,WUHU21623XXSP,2013-03-18 17:30:00,
2013-03-18 10:35:00,55.6,40.2,29.94,SW,225,0.0,0.0,56,0.00,,,0.00,WUHU21623XXSP,2013-03-18 17:35:00,
2013-03-18 10:40:00,56.3,40.9,29.94,West,270,0.0,0.0,56,0.00,,,0.00,WUHU21623XXSP,2013-03-18 17:40:00,
2013-03-18 10:45:00,56.8,40.9,29.94,West,270,0.0,0.0,55,0.00,,,0.00,WUHU21623XXSP,2013-03-18 17:45:00,
2013-03-18 10:50:00,57.2,41.2,29.94,West,270,2.0,2.0,55,0.00,,,0.00,WUHU21623XXSP,2013-03-18 17:50:00,
2013-03-18 10:55:00,57.2,41.2,29.94,West,270,0.0,2.7,55,0.00,,,0.00,WUHU21623XXSP,2013-03-18 17:55:00,
2013-03-18 11:00:00,56.8,41.8,29.95,West,270,0.0,2.7,57,0.00,,,0.00,WUHU21623XXSP,2013-03-18 18:00:00,
2013-03-18 11:05:00,57.4,41.9,29.95,WNW,292,0.0,0.0,56,0.00,,,0.00,WUHU21623XXSP,2013-03-18 18:05:00,
2013-03-18 11:10:00,57.2,41.2,29.95,SW,225,0.0,0.0,55,0.00,,,0.00,WUHU21623XXSP,2013-03-18 18:10:00,
2013-03-18 11:15:00,57.9,41.9,29.94,WSW,247,0.0,0.0,55,0.00,,,0.00,WUHU21623XXSP,2013-03-18 18:15:00,
2013-03-18 11:20:00,58.4,42.4,29.95,WSW,247,0.0,0.0,55,0.00,,,0.00,WUHU21623XXSP,2013-03-18 18:20:00,
2013-03-18 11:25:00,59.0,42.4,29.94,WNW,292,0.0,0.0,54,0.00,,,0.00,WUHU21623XXSP,2013-03-18 18:25:00,
2013-03-18 11:30:00,59.3,42.2,29.94,SW,225,0.0,0.0,53,0.00,,,0.00,WUHU21623XXSP,2013-03-18 18:30:00,
2013-03-18 11:35:00,59.7,42.1,29.94,SW,225,0.0,0.0,52,0.00,,,0.00,WUHU21623XXSP,2013-03-18 18:35:00,
2013-03-18 11:40:00,60.8,43.6,29.94,WNW,292,0.0,0.0,53,0.00,,,0.00,WUHU21623XXSP,2013-03-18 18:40:00,
2013-03-18 11:45:00,61.5,43.8,29.94,WNW,292,0.0,0.0,52,0.00,,,0.00,WUHU21623XXSP,2013-03-18 18:45:00,
2013-03-18 11:50:00,62.2,44.4,29.94,WNW,292,0.0,0.0,52,0.00,,,0.00,WUHU21623XXSP,2013-03-18 18:50:00,
2013-03-18 11:55:00,62.2,43.3,29.94,WNW,292,0.0,0.0,50,0.00,,,0.00,WUHU21623XXSP,2013-03-18 18:55:00,
2013-03-18 12:00:00,61.7,42.3,29.94,SW,225,0.0,0.0,49,0.00,,,0.00,WUHU21623XXSP,2013-03-18 19:00:00,
2013-03-18 12:05:00,61.3,42.0,29.94,West,270,0.0,0.0,49,0.00,,,0.00,WUHU21623XXSP,2013-03-18 19:05:00,
2013-03-18 12:10:00,62.0,43.2,29.95,WSW,247,0.0,6.3,50,0.00,,,0.00,WUHU21623XXSP,2013-03-18 19:10:00,
2013-03-18 12:15:00,61.9,42.5,29.94,WSW,247,4.9,6.7,49,0.00,,,0.00,WUHU21623XXSP,2013-03-18 19:15:00,
2013-03-18 12:20:00,62.0,43.2,29.95,West,270,0.0,7.2,50,0.00,,,0.00,WUHU21623XXSP,2013-03-18 19:20:00,
2013-03-18 12:25:00,62.0,42.6,29.95,WSW,247,0.0,7.2,49,0.00,,,0.00,WUHU21623XXSP,2013-03-18 19:25:00,
2013-03-18 12:30:00,62.4,43.0,29.94,WSW,247,0.0,6.0,49,0.00,,,0.00,WUHU21623XXSP,2013-03-18 19:30:00,
2013-03-18 12:35:00,62.4,42.4,29.95,SW,225,2.0,4.7,48,0.00,,,0.00,WUHU21623XXSP,2013-03-18 19:35:00,
2013-03-18 12:40:00,62.9,43.4,29.95,WSW,247,0.0,6.7,49,0.00,,,0.00,WUHU21623XXSP,2013-03-18 19:40:00,
2013-03-18 12:45:00,63.1,43.6,29.94,WSW,247,0.0,6.7,49,0.00,,,0.00,WUHU21623XXSP,2013-03-18 19:45:00,
2013-03-18 12:50:00,63.8,43.7,29.94,West,270,0.0,6.5,48,0.00,,,0.00,WUHU21623XXSP,2013-03-18 19:50:00,
2013-03-18 12:55:00,64.0,43.3,29.94,SW,225,0.0,8.3,47,0.00,,,0.00,WUHU21623XXSP,2013-03-18 19:55:00,
2013-03-18 13:00:00,63.8,42.6,29.94,SW,225,0.0,8.3,46,0.00,,,0.00,WUHU21623XXSP,2013-03-18 20:00:00,
2013-03-18 13:05:00,64.0,42.8,29.93,SW,225,0.0,4.0,46,0.00,,,0.00,WUHU21623XXSP,2013-03-18 20:05:00,
2013-03-18 13:10:00,64.4,43.1,29.93,SSW,202,0.0,1.1,46,0.00,,,0.00,WUHU21623XXSP,2013-03-18 20:10:00,
2013-03-18 13:15:00,64.6,42.7,29.93,WSW,247,0.0,4.7,45,0.00,,,0.00,WUHU21623XXSP,2013-03-18 20:15:00,
2013-03-18 13:20:00,65.1,43.2,29.93,NE,45,0.0,4.7,45,0.00,,,0.00,WUHU21623XXSP,2013-03-18 20:20:00,
2013-03-18 13:30:00,65.5,43.5,29.93,NW,315,0.0,0.0,45,0.00,,,0.00,WUHU21623XXSP,2013-03-18 20:30:00,
2013-03-18 13:35:00,66.7,44.0,29.93,WNW,292,0.0,0.0,44,0.00,,,0.00,WUHU21623XXSP,2013-03-18 20:35:00,
2013-03-18 13:40:00,67.1,43.1,29.92,SW,225,0.0,0.0,42,0.00,,,0.00,WUHU21623XXSP,2013-03-18 20:40:00,
2013-03-18 13:45:00,67.3,42.7,29.92,West,270,0.0,0.0,41,0.00,,,0.00,WUHU21623XXSP,2013-03-18 20:45:00,
2013-03-18 13:50:00,66.7,41.5,29.92,WSW,247,0.0,1.3,40,0.00,,,0.00,WUHU21623XXSP,2013-03-18 20:50:00,
2013-03-18 13:55:00,66.7,41.5,29.92,West,270,0.0,1.3,40,0.00,,,0.00,WUHU21623XXSP,2013-03-18 20:55:00,
2013-03-18 14:00:00,67.3,42.7,29.91,West,270,0.0,4.0,41,0.00,,,0.00,WUHU21623XXSP,2013-03-18 21:00:00,
2013-03-18 14:05:00,67.3,43.3,29.91,NW,315,0.0,4.0,42,0.00,,,0.00,WUHU21623XXSP,2013-03-18 21:05:00,
2013-03-18 14:10:00,67.6,43.6,29.91,NW,315,3.6,6.0,42,0.00,,,0.00,WUHU21623XXSP,2013-03-18 21:10:00,
2013-03-18 14:15:00,67.6,42.3,29.90,West,270,0.0,6.0,40,0.00,,,0.00,WUHU21623XXSP,2013-03-18 21:15:00,
2013-03-18 14:20:00,66.9,43.0,29.90,SW,225,0.0,4.0,42,0.00,,,0.00,WUHU21623XXSP,2013-03-18 21:20:00,
2013-03-18 14:25:00,66.9,43.0,29.90,WNW,292,0.0,4.0,42,0.00,,,0.00,WUHU21623XXSP,2013-03-18 21:25:00,
2013-03-18 14:30:00,66.5,42.0,29.90,WNW,292,0.0,2.0,41,0.00,,,0.00,WUHU21623XXSP,2013-03-18 21:30:00,
2013-03-18 14:35:00,66.7,42.1,29.90,West,270,0.0,4.5,41,0.00,,,0.00,WUHU21623XXSP,2013-03-18 21:35:00,
2013-03-18 14:40:00,66.7,42.8,29.89,WNW,292,0.0,4.5,42,0.00,,,0.00,WUHU21623XXSP,2013-03-18 21:40:00,
2013-03-18 14:46:00,66.7,42.8,29.89,WSW,247,0.0,0.0,42,0.00,,,0.00,WUHU21623XXSP,2013-03-18 21:46:00,
2013-03-18 14:51:00,66.2,43.6,29.89,WSW,247,0.0,5.4,44,0.00,,,0.00,WUHU21623XXSP,2013-03-18 21:51:00,
2013-03-18 14:56:00,65.3,43.9,29.90,WSW,247,0.0,6.3,46,0.00,,,0.00,WUHU21623XXSP,2013-03-18 21:56:00,
2013-03-18 15:01:00,65.1,43.8,29.89,WSW,247,0.0,6.3,46,0.00,,,0.00,WUHU21623XXSP,2013-03-18 22:01:00,
2013-03-18 15:06:00,64.9,43.6,29.89,West,270,5.8,7.6,46,0.00,,,0.00,WUHU21623XXSP,2013-03-18 22:06:00,
2013-03-18 15:11:00,65.3,43.9,29.89,West,270,0.7,7.6,46,0.00,,,0.00,WUHU21623XXSP,2013-03-18 22:11:00,
2013-03-18 15:16:00,65.8,44.4,29.89,West,270,0.0,5.8,46,0.00,,,0.00,WUHU21623XXSP,2013-03-18 22:16:00,
2013-03-18 15:21:00,65.3,43.9,29.89,West,270,0.0,6.5,46,0.00,,,0.00,WUHU21623XXSP,2013-03-18 22:21:00,
2013-03-18 15:26:00,65.3,43.9,29.89,WSW,247,0.0,6.5,46,0.00,,,0.00,WUHU21623XXSP,2013-03-18 22:26:00,
2013-03-18 15:31:00,65.1,44.9,29.89,WSW,247,5.1,8.1,48,0.00,,,0.00,WUHU21623XXSP,2013-03-18 22:31:00,
2013-03-18 15:36:00,64.7,44.6,29.89,SW,225,4.5,8.1,48,0.00,,,0.00,WUHU21623XXSP,2013-03-18 22:36:00,
2013-03-18 15:41:00,64.7,45.1,29.90,WSW,247,0.0,8.3,49,0.00,,,0.00,WUHU21623XXSP,2013-03-18 22:41:00,
2013-03-18 15:46:00,64.7,45.1,29.90,WSW,247,6.0,8.3,49,0.00,,,0.00,WUHU21623XXSP,2013-03-18 22:46:00,
2013-03-18 15:51:00,64.9,45.8,29.89,WSW,247,2.5,6.5,50,0.00,,,0.00,WUHU21623XXSP,2013-03-18 22:51:00,
2013-03-18 15:56:00,64.7,45.7,29.89,WSW,247,0.0,8.1,50,0.00,,,0.00,WUHU21623XXSP,2013-03-18 22:56:00,
2013-03-18 16:01:00,64.7,45.7,29.89,WSW,247,2.2,8.1,50,0.00,,,0.00,WUHU21623XXSP,2013-03-18 23:01:00,
2013-03-18 16:06:00,65.1,45.5,29.89,WSW,247,5.8,7.4,49,0.00,,,0.00,WUHU21623XXSP,2013-03-18 23:06:00,
2013-03-18 16:11:00,65.3,45.7,29.89,West,270,0.0,7.4,49,0.00,,,0.00,WUHU21623XXSP,2013-03-18 23:11:00,
2013-03-18 16:16:00,65.6,45.9,29.89,West,270,2.0,6.9,49,0.00,,,0.00,WUHU21623XXSP,2013-03-18 23:16:00,
2013-03-18 16:21:00,65.6,45.4,29.89,WNW,292,0.0,5.8,48,0.00,,,0.00,WUHU21623XXSP,2013-03-18 23:21:00,
2013-03-18 16:26:00,65.8,45.6,29.89,WNW,292,0.0,2.0,48,0.00,,,0.00,WUHU21623XXSP,2013-03-18 23:26:00,
2013-03-18 16:31:00,65.8,45.6,29.89,West,270,1.1,4.0,48,0.00,,,0.00,WUHU21623XXSP,2013-03-18 23:31:00,
2013-03-18 16:36:00,66.0,45.7,29.89,West,270,4.0,5.1,48,0.00,,,0.00,WUHU21623XXSP,2013-03-18 23:36:00,
2013-03-18 16:41:00,66.2,45.4,29.89,West,270,0.0,5.1,47,0.00,,,0.00,WUHU21623XXSP,2013-03-18 23:41:00,
2013-03-18 16:46:00,66.2,45.9,29.89,WNW,292,0.0,5.4,48,0.00,,,0.00,WUHU21623XXSP,2013-03-18 23:46:00,
2013-03-18 16:51:00,66.2,45.9,29.89,WNW,292,0.0,5.4,48,0.00,,,0.00,WUHU21623XXSP,2013-03-18 23:51:00,
2013-03-18 16:56:00,66.2,45.9,29.89,WNW,292,1.1,4.7,48,0.00,,,0.00,WUHU21623XXSP,2013-03-18 23:56:00,
2013-03-18 17:01:00,66.2,45.9,29.89,WNW,292,0.0,4.7,48,0.00,,,0.00,WUHU21623XXSP,2013-03-19 00:01:00,
2013-03-18 17:05:00,65.8,45.6,29.89,WNW,292,0.0,5.6,48,0.00,,,0.00,WUHU21623XXSP,2013-03-19 00:05:00,
2013-03-18 17:11:00,65.8,45.6,29.89,West,270,0.0,5.6,48,0.00,,,0.00,WUHU21623XXSP,2013-03-19 00:11:00,
2013-03-18 17:15:00,65.8,45.6,29.89,West,270,0.0,0.0,48,0.00,,,0.00,WUHU21623XXSP,2013-03-19 00:15:00,
2013-03-18 17:20:00,65.8,45.6,29.89,West,270,0.0,0.0,48,0.00,,,0.00,WUHU21623XXSP,2013-03-19 00:20:00,
2013-03-18 17:25:00,65.8,45.6,29.88,West,270,0.0,0.0,48,0.00,,,0.00,WUHU21623XXSP,2013-03-19 00:25:00,
2013-03-18 17:30:00,65.6,45.4,29.88,West,270,0.0,0.0,48,0.00,,,0.00,WUHU21623XXSP,2013-03-19 00:30:00,
2013-03-18 17:35:00,65.6,45.4,29.88,West,270,0.0,0.0,48,0.00,,,0.00,WUHU21623XXSP,2013-03-19 00:35:00,
2013-03-18 17:40:00,65.3,45.7,29.88,West,270,0.0,0.0,49,0.00,,,0.00,WUHU21623XXSP,2013-03-19 00:40:00,
2013-03-18 17:45:00,65.1,45.5,29.88,West,270,0.0,1.6,49,0.00,,,0.00,WUHU21623XXSP,2013-03-19 00:45:00,
2013-03-18 17:50:00,65.1,45.5,29.88,West,270,0.0,1.6,49,0.00,,,0.00,WUHU21623XXSP,2013-03-19 00:50:00,
2013-03-18 17:55:00,64.9,45.3,29.88,West,270,0.0,0.0,49,0.00,,,0.00,WUHU21623XXSP,2013-03-19 00:55:00,
2013-03-18 18:00:00,64.9,45.3,29.88,West,270,0.0,0.0,49,0.00,,,0.00,WUHU21623XXSP,2013-03-19 01:00:00,
2013-03-18 18:05:00,65.1,45.5,29.88,West,270,0.0,0.0,49,0.00,,,0.00,WUHU21623XXSP,2013-03-19 01:05:00,
2013-03-18 18:10:00,65.1,45.5,29.88,West,270,0.0,0.0,49,0.00,,,0.00,WUHU21623XXSP,2013-03-19 01:10:00,
2013-03-18 18:15:00,64.9,45.8,29.88,WSW,247,0.0,0.0,50,0.00,,,0.00,WUHU21623XXSP,2013-03-19 01:15:00,
2013-03-18 18:20:00,64.7,46.2,29.88,WSW,247,0.0,0.0,51,0.00,,,0.00,WUHU21623XXSP,2013-03-19 01:20:00,
2013-03-18 18:25:00,64.6,46.1,29.88,West,270,0.0,0.0,51,0.00,,,0.00,WUHU21623XXSP,2013-03-19 01:25:00,
2013-03-18 18:30:00,64.4,46.4,29.88,West,270,0.0,0.0,52,0.00,,,0.00,WUHU21623XXSP,2013-03-19 01:30:00,
2013-03-18 18:35:00,64.0,46.1,29.88,West,270,0.0,1.6,52,0.00,,,0.00,WUHU21623XXSP,2013-03-19 01:35:00,
2013-03-18 18:40:00,63.8,45.4,29.89,WSW,247,0.0,3.1,51,0.00,,,0.00,WUHU21623XXSP,2013-03-19 01:40:00,
2013-03-18 18:45:00,63.7,45.8,29.89,West,270,0.0,3.1,52,0.00,,,0.00,WUHU21623XXSP,2013-03-19 01:45:00,
2013-03-18 18:50:00,63.8,45.9,29.89,West,270,0.0,1.8,52,0.00,,,0.00,WUHU21623XXSP,2013-03-19 01:50:00,
2013-03-18 18:55:00,63.7,45.8,29.89,NW,315,0.0,0.0,52,0.00,,,0.00,WUHU21623XXSP,2013-03-19 01:55:00,
2013-03-18 19:00:00,63.3,45.4,29.89,NW,315,0.0,0.0,52,0.00,,,0.00,WUHU21623XXSP,2013-03-19 02:00:00,
2013-03-18 19:05:00,62.9,45.1,29.89,NW,315,0.0,0.0,52,0.00,,,0.00,WUHU21623XXSP,2013-03-19 02:05:00,
2013-03-18 19:10:00,62.8,45.0,29.90,West,270,0.0,0.0,52,0.00,,,0.00,WUHU21623XXSP,2013-03-19 02:10:00,
2013-03-18 19:15:00,62.4,44.6,29.90,West,270,0.0,5.6,52,0.00,,,0.00,WUHU21623XXSP,2013-03-19 02:15:00,
2013-03-18 19:20:00,62.2,44.4,29.90,WNW,292,5.6,7.4,52,0.00,,,0.00,WUHU21623XXSP,2013-03-19 02:20:00,
2013-03-18 19:25:00,62.0,44.2,29.90,WNW,292,0.0,7.4,52,0.00,,,0.00,WUHU21623XXSP,2013-03-19 02:25:00,
2013-03-18 19:30:00,61.7,43.4,29.90,WNW,292,0.0,7.4,51,0.00,,,0.00,WUHU21623XXSP,2013-03-19 02:30:00,
2013-03-18 19:35:00,61.5,43.2,29.90,WNW,292,1.3,4.3,51,0.00,,,0.00,WUHU21623XXSP,2013-03-19 02:35:00,
2013-03-18 19:40:00,61.5,43.8,29.90,WNW,292,0.0,6.7,52,0.00,,,0.00,WUHU21623XXSP,2013-03-19 02:40:00,
2013-03-18 19:45:00,61.5,43.8,29.91,West,270,0.9,6.7,52,0.00,,,0.00,WUHU21623XXSP,2013-03-19 02:45:00,
2013-03-18 19:50:00,61.3,43.6,29.90,West,270,6.9,7.6,52,0.00,,,0.00,WUHU21623XXSP,2013-03-19 02:50:00,
2013-03-18 19:55:00,61.3,43.6,29.91,West,270,4.7,8.5,52,0.00,,,0.00,WUHU21623XXSP,2013-03-19 02:55:00,
2013-03-18 20:00:00,61.1,43.4,29.91,West,270,1.8,8.5,52,0.00,,,0.00,WUHU21623XXSP,2013-03-19 03:00:00,
2013-03-18 20:05:00,60.8,43.1,29.90,WSW,247,2.5,6.9,52,0.00,,,0.00,WUHU21623XXSP,2013-03-19 03:05:00,
2013-03-18 20:10:00,60.4,42.7,29.91,SW,225,0.0,3.4,52,0.00,,,0.00,WUHU21623XXSP,2013-03-19 03:10:00,
2013-03-18 20:15:00,59.9,42.8,29.92,WSW,247,0.0,0.0,53,0.00,,,0.00,WUHU21623XXSP,2013-03-19 03:15:00,
2013-03-18 20:20:00,59.5,42.4,29.92,WNW,292,0.0,1.8,53,0.00,,,0.00,WUHU21623XXSP,2013-03-19 03:20:00,
2013-03-18 20:25:00,59.5,42.4,29.92,West,270,1.1,3.4,53,0.00,,,0.00,WUHU21623XXSP,2013-03-19 03:25:00,
2013-03-18 20:30:00,59.5,42.4,29.92,West,270,1.3,3.8,53,0.00,,,0.00,WUHU21623XXSP,2013-03-19 03:30:00,
2013-03-18 20:35:00,59.3,42.2,29.92,WSW,247,1.8,4.3,53,0.00,,,0.00,WUHU21623XXSP,2013-03-19 03:35:00,
2013-03-18 20:40:00,59.0,42.4,29.92,West,270,2.7,7.2,54,0.00,,,0.00,WUHU21623XXSP,2013-03-19 03:40:00,
2013-03-18 20:45:00,58.6,42.1,29.92,WNW,292,7.6,7.6,54,0.00,,,0.00,WUHU21623XXSP,2013-03-19 03:45:00,
2013-03-18 20:50:00,58.4,41.9,29.93,West,270,6.9,9.2,54,0.00,,,0.00,WUHU21623XXSP,2013-03-19 03:50:00,
2013-03-18 20:55:00,58.1,41.6,29.93,West,270,7.6,12.1,54,0.00,,,0.00,WUHU21623XXSP,2013-03-19 03:55:00,
2013-03-18 21:00:00,57.9,40.9,29.93,WNW,292,7.8,12.1,53,0.00,,,0.00,WUHU21623XXSP,2013-03-19 04:00:00,
2013-03-18 21:01:00,57.7,40.7,29.93,WNW,292,8.9,12.1,53,0.00,,,0.00,WUHU21623XXSP,2013-03-19 04:01:00,
2013-03-18 21:06:00,57.5,40.0,29.93,West,270,8.5,16.1,52,0.00,,,0.00,WUHU21623XXSP,2013-03-19 04:06:00,
2013-03-18 21:11:00,57.0,39.6,29.93,WNW,292,13.6,16.1,52,0.00,,,0.00,WUHU21623XXSP,2013-03-19 04:11:00,
2013-03-18 21:16:00,56.8,39.4,29.93,West,270,7.2,13.6,52,0.00,,,0.00,WUHU21623XXSP,2013-03-19 04:16:00,
2013-03-18 21:21:00,56.8,39.4,29.94,WSW,247,9.4,13.0,52,0.00,,,0.00,WUHU21623XXSP,2013-03-19 04:21:00,
2013-03-18 21:26:00,56.8,39.4,29.93,West,270,12.1,13.2,52,0.00,,,0.00,WUHU21623XXSP,2013-03-19 04:26:00,
2013-03-18 21:31:00,56.6,39.7,29.93,West,270,7.8,13.2,53,0.00,,,0.00,WUHU21623XXSP,2013-03-19 04:31:00,
2013-03-18 21:36:00,56.5,39.6,29.94,WNW,292,6.5,10.7,53,0.00,,,0.00,WUHU21623XXSP,2013-03-19 04:36:00,
2013-03-18 21:41:00,56.1,39.2,29.94,SW,225,5.4,8.3,53,0.00,,,0.00,WUHU21623XXSP,2013-03-19 04:41:00,
2013-03-18 21:49:00,55.9,39.1,29.94,WSW,247,4.0,8.3,53,0.00,,,0.00,WUHU21623XXSP,2013-03-19 04:49:00,
2013-03-18 21:54:00,55.0,39.2,29.94,WSW,247,4.3,6.7,55,0.00,,,0.00,WUHU21623XXSP,2013-03-19 04:54:00,
2013-03-18 21:59:00,54.8,39.0,29.94,SW,225,6.3,6.9,55,0.00,,,0.00,WUHU21623XXSP,2013-03-19 04:59:00,
2013-03-18 22:04:00,54.1,38.8,29.94,WSW,247,5.8,7.2,56,0.00,,,0.00,WUHU21623XXSP,2013-03-19 05:04:00,
2013-03-18 22:09:00,53.9,38.6,29.94,West,270,5.6,7.4,56,0.00,,,0.00,WUHU21623XXSP,2013-03-19 05:09:00,
2013-03-18 22:14:00,53.8,39.0,29.94,WSW,247,8.3,9.6,57,0.00,,,0.00,WUHU21623XXSP,2013-03-19 05:14:00,
2013-03-18 22:19:00,53.8,39.0,29.94,WSW,247,6.0,9.6,57,0.00,,,0.00,WUHU21623XXSP,2013-03-19 05:19:00,
2013-03-18 22:24:00,53.4,38.6,29.94,WSW,247,0.0,8.3,57,0.00,,,0.00,WUHU21623XXSP,2013-03-19 05:24:00,
2013-03-18 22:29:00,53.0,38.7,29.94,WSW,247,2.9,6.7,58,0.00,,,0.00,WUHU21623XXSP,2013-03-19 05:29:00,
2013-03-18 22:34:00,52.7,38.4,29.94,West,270,0.0,6.7,58,0.00,,,0.00,WUHU21623XXSP,2013-03-19 05:34:00,
2013-03-18 22:39:00,52.5,38.2,29.94,WSW,247,0.0,4.5,58,0.00,,,0.00,WUHU21623XXSP,2013-03-19 05:39:00,
2013-03-18 22:44:00,52.3,38.5,29.95,WSW,247,0.0,2.8,59,0.00,,,0.00,WUHU21623XXSP,2013-03-19 05:44:00,
2013-03-18 22:49:00,52.1,38.3,29.95,West,270,3.4,3.4,59,0.00,,,0.00,WUHU21623XXSP,2013-03-19 05:49:00,
2013-03-18 22:54:00,52.0,38.2,29.95,West,270,0.0,3.4,59,0.00,,,0.00,WUHU21623XXSP,2013-03-19 05:54:00,
2013-03-18 22:59:00,52.0,38.2,29.95,West,270,0.0,4.9,59,0.00,,,0.00,WUHU21623XXSP,2013-03-19 05:59:00,
2013-03-18 23:04:00,52.1,38.3,29.95,WNW,292,0.0,6.3,59,0.00,,,0.00,WUHU21623XXSP,2013-03-19 06:04:00,
2013-03-18 23:09:00,52.1,38.3,29.95,SW,225,0.0,6.3,59,0.00,,,0.00,WUHU21623XXSP,2013-03-19 06:09:00,
2013-03-18 23:14:00,51.8,38.9,29.95,SSE,157,0.0,2.7,61,0.00,,,0.00,WUHU21623XXSP,2013-03-19 06:14:00,
2013-03-18 23:19:00,51.4,38.5,29.95,SSW,202,0.0,2.7,61,0.00,,,0.00,WUHU21623XXSP,2013-03-19 06:19:00,
2013-03-18 23:24:00,51.8,38.9,29.96,SW,225,0.0,0.0,61,0.00,,,0.00,WUHU21623XXSP,2013-03-19 06:24:00,
2013-03-18 23:29:00,52.1,38.7,29.96,West,270,0.0,0.0,60,0.00,,,0.00,WUHU21623XXSP,2013-03-19 06:29:00,
2013-03-18 23:34:00,52.1,38.7,29.96,West,270,0.0,0.0,60,0.00,,,0.00,WUHU21623XXSP,2013-03-19 06:34:00,
2013-03-18 23:39:00,52.0,38.6,29.96,West,270,0.0,0.0,60,0.00,,,0.00,WUHU21623XXSP,2013-03-19 06:39:00,
2013-03-18 23:44:00,51.8,38.4,29.96,West,270,0.0,0.0,60,0.00,,,0.00,WUHU21623XXSP,2013-03-19 06:44:00,
2013-03-18 23:49:00,51.6,38.3,29.95,West,270,0.0,0.0,60,0.00,,,0.00,WUHU21623XXSP,2013-03-19 06:49:00,
2013-03-18 23:54:00,51.4,38.1,29.94,West,270,0.0,0.0,60,0.00,,,0.00,WUHU21623XXSP,2013-03-19 06:54:00,
2013-03-18 23:59:00,51.2,37.9,29.94,WSW,247,0.0,0.0,60,0.00,,,0.00,WUHU21623XXSP,2013-03-19 06:59:00,